createdAt,value
2022-12-25T00:04:23.061Z,1.67
2022-12-25T00:09:24.924Z,1.65
2022-12-25T00:14:26.786Z,1.88
2022-12-25T00:19:32.176Z,1.70
2022-12-25T00:24:34.040Z,1.98
2022-12-25T00:29:36.043Z,1.38
2022-12-25T00:34:37.882Z,1.75
2022-12-25T00:39:40.238Z,1.50
2022-12-25T00:44:42.137Z,1.58
2022-12-25T00:49:44.287Z,1.40
2022-12-25T00:54:46.120Z,1.48
2022-12-25T00:59:47.879Z,1.42
2022-12-25T01:04:51.032Z,1.40
2022-12-25T01:10:11.294Z,1.90
2022-12-25T01:15:13.847Z,1.40
2022-12-25T01:20:17.169Z,1.17
2022-12-25T01:25:19.133Z,1.42
2022-12-25T01:30:20.891Z,1.42
2022-12-25T01:35:22.787Z,0.98
2022-12-25T01:40:24.688Z,1.60
2022-12-25T01:45:52.909Z,3.65
2022-12-25T01:50:59.379Z,1.40
2022-12-25T01:56:06.517Z,1.50
2022-12-25T02:01:08.890Z,1.87
2022-12-25T02:06:10.692Z,1.85
2022-12-25T02:11:32.515Z,1.42
2022-12-25T02:16:56.828Z,1.92
2022-12-25T02:22:25.320Z,1.63
2022-12-25T02:27:56.129Z,1.30
2022-12-25T02:33:20.768Z,1.63
2022-12-25T02:38:36.375Z,1.13
2022-12-25T02:44:02.441Z,1.30
2022-12-25T02:49:28.258Z,1.52
2022-12-25T02:54:57.126Z,1.45
2022-12-25T03:00:20.314Z,1.42
2022-12-25T03:05:44.235Z,1.33
2022-12-25T03:11:12.123Z,1.80
2022-12-25T03:16:32.518Z,1.42
2022-12-25T03:21:53.080Z,1.45
2022-12-25T03:26:56.998Z,1.63
2022-12-25T03:32:13.528Z,1.50
2022-12-25T03:37:44.873Z,1.50
2022-12-25T03:43:13.614Z,1.25
2022-12-25T03:48:35.395Z,1.30
2022-12-25T03:54:09.995Z,1.50
2022-12-25T03:59:30.333Z,1.63
2022-12-25T04:04:50.578Z,1.88
2022-12-25T04:10:27.824Z,1.17
2022-12-25T04:15:48.320Z,1.25
2022-12-25T04:21:08.689Z,1.70
2022-12-25T04:26:28.890Z,1.27
2022-12-25T04:31:49.293Z,1.77
2022-12-25T04:36:51.058Z,1.75
2022-12-25T04:41:52.903Z,1.42
2022-12-25T04:46:54.803Z,1.45
2022-12-25T04:51:56.861Z,2.00
2022-12-25T04:56:58.936Z,1.40
2022-12-25T05:02:00.850Z,1.85
2022-12-25T05:07:02.811Z,1.30
2022-12-25T05:12:04.968Z,1.70
2022-12-25T05:17:08.143Z,1.33
2022-12-25T05:22:10.003Z,1.58
2022-12-25T05:27:11.768Z,1.80
2022-12-25T05:32:13.576Z,1.30
2022-12-25T05:37:15.650Z,1.70
2022-12-25T05:42:17.662Z,1.23
2022-12-25T05:47:19.477Z,1.33
2022-12-25T05:52:21.382Z,0.93
2022-12-25T05:57:23.256Z,1.00
2022-12-25T06:02:26.579Z,1.10
2022-12-25T06:07:28.842Z,1.23
2022-12-25T06:12:30.728Z,1.50
2022-12-25T06:17:33.043Z,1.10
2022-12-25T06:22:35.357Z,1.42
2022-12-25T06:27:37.281Z,1.55
2022-12-25T06:32:39.384Z,1.27
2022-12-25T06:37:41.319Z,1.35
2022-12-25T06:42:43.214Z,0.95
2022-12-25T06:47:44.980Z,1.10
2022-12-25T06:52:46.767Z,1.23
2022-12-25T06:57:48.611Z,1.20
2022-12-25T07:02:50.591Z,1.60
2022-12-25T07:07:52.840Z,1.38
2022-12-25T07:12:54.668Z,1.30
2022-12-25T07:17:58.785Z,1.38
2022-12-25T07:23:00.664Z,1.15
2022-12-25T07:28:02.544Z,1.50
2022-12-25T07:33:04.324Z,1.55
2022-12-25T07:38:06.344Z,2.17
2022-12-25T07:43:08.107Z,1.42
2022-12-25T07:48:15.430Z,1.30
2022-12-25T07:53:18.496Z,1.58
2022-12-25T07:58:23.430Z,1.70
2022-12-25T08:03:25.717Z,1.08
2022-12-25T08:08:27.976Z,1.38
2022-12-25T08:13:34.111Z,1.25
2022-12-25T08:18:37.328Z,0.82
2022-12-25T08:23:44.727Z,2.72
2022-12-25T08:28:47.365Z,1.50
2022-12-25T08:33:51.619Z,1.45
2022-12-25T08:39:00.283Z,1.50
2022-12-25T08:44:05.718Z,2.03
2022-12-25T08:49:07.491Z,1.60
2022-12-25T08:54:09.306Z,1.95
2022-12-25T08:59:11.877Z,1.67
2022-12-25T09:04:14.353Z,3.78
2022-12-25T09:09:16.107Z,3.35
2022-12-25T09:14:17.858Z,4.28
2022-12-25T09:19:19.900Z,2.65
2022-12-25T09:24:21.787Z,2.10
2022-12-25T09:29:27.947Z,2.05
2022-12-25T09:34:29.889Z,1.60
2022-12-25T09:39:31.721Z,1.92
2022-12-25T09:44:43.168Z,1.92
2022-12-25T09:50:13.154Z,1.92
2022-12-25T09:55:21.327Z,2.20
2022-12-25T10:00:25.699Z,2.08
2022-12-25T10:11:28.351Z,2.05
2022-12-25T10:16:42.338Z,2.25
2022-12-25T10:21:44.754Z,2.13
2022-12-25T10:26:48.438Z,2.03
2022-12-25T10:31:54.743Z,2.35
2022-12-25T10:36:58.687Z,2.40
2022-12-25T10:42:15.495Z,3.67
2022-12-25T10:47:24.757Z,3.58
2022-12-25T10:52:28.962Z,1.90
2022-12-25T10:57:30.710Z,2.08
2022-12-25T11:02:40.056Z,2.10
2022-12-25T11:07:51.348Z,2.20
2022-12-25T11:12:54.328Z,2.22
2022-12-25T11:17:56.364Z,2.33
2022-12-25T11:22:58.185Z,2.30
2022-12-25T11:28:05.896Z,2.28
2022-12-25T11:33:12.596Z,2.67
2022-12-25T11:38:14.648Z,2.20
2022-12-25T11:43:29.913Z,1.48
2022-12-25T11:48:40.936Z,1.92
2022-12-25T11:53:53.191Z,1.98
2022-12-25T11:59:18.307Z,1.83
2022-12-25T12:04:40.355Z,2.00
2022-12-25T12:10:00.777Z,2.58
2022-12-25T12:15:31.139Z,1.80
2022-12-25T12:20:35.740Z,1.92
2022-12-25T12:25:42.508Z,2.25
2022-12-25T12:30:44.435Z,2.17
2022-12-25T12:35:46.271Z,2.15
2022-12-25T12:40:58.025Z,2.97
2022-12-25T12:46:30.506Z,2.60
2022-12-25T12:51:35.711Z,2.22
2022-12-25T12:56:37.668Z,2.90
2022-12-25T13:02:01.499Z,3.20
2022-12-25T13:07:44.202Z,3.55
2022-12-25T13:12:47.046Z,3.67
2022-12-25T13:17:50.217Z,3.15
2022-12-25T13:22:53.058Z,2.20
2022-12-25T13:27:59.597Z,2.63
2022-12-25T13:33:01.595Z,2.95
2022-12-25T13:38:03.467Z,2.72
2022-12-25T13:43:05.316Z,2.70
2022-12-25T13:48:15.984Z,2.83
2022-12-25T13:53:18.223Z,2.92
2022-12-25T13:58:31.652Z,3.28
2022-12-25T14:03:39.524Z,3.13
2022-12-25T14:08:41.540Z,2.45
2022-12-25T14:13:46.592Z,2.60
2022-12-25T14:19:23.168Z,2.95
2022-12-25T14:24:27.080Z,2.13
2022-12-25T14:29:37.670Z,2.63
2022-12-25T14:34:39.534Z,2.22
2022-12-25T14:39:41.338Z,2.85
2022-12-25T14:44:43.173Z,2.67
2022-12-25T14:49:46.039Z,2.97
2022-12-25T14:54:57.912Z,2.67
2022-12-25T15:00:21.004Z,2.30
2022-12-25T15:05:27.062Z,3.00
2022-12-25T15:10:58.914Z,9.02
2022-12-25T15:16:14.955Z,4.18
2022-12-25T15:21:36.997Z,4.60
2022-12-25T15:26:39.276Z,5.15
2022-12-25T15:31:41.222Z,9.70
2022-12-25T15:36:43.141Z,4.20
2022-12-25T15:42:03.530Z,5.03
2022-12-25T15:47:05.405Z,4.28
2022-12-25T15:52:13.193Z,4.13
2022-12-25T15:57:21.417Z,4.05
2022-12-25T16:02:23.292Z,3.22
2022-12-25T16:07:25.923Z,3.75
2022-12-25T16:12:27.690Z,4.22
2022-12-25T16:17:29.440Z,3.60
2022-12-25T16:22:33.098Z,2.97
2022-12-25T16:27:34.883Z,3.42
2022-12-25T16:32:36.997Z,3.13
2022-12-25T16:37:39.499Z,3.08
2022-12-25T16:42:41.357Z,3.00
2022-12-25T16:47:43.165Z,2.53
2022-12-25T16:52:44.960Z,3.30
2022-12-25T16:57:50.994Z,4.00
2022-12-25T17:02:53.390Z,4.38
2022-12-25T17:07:55.347Z,3.47
2022-12-25T17:12:57.108Z,3.92
2022-12-25T17:17:58.965Z,3.95
2022-12-25T17:23:00.855Z,3.95
2022-12-25T17:28:02.692Z,3.63
2022-12-25T17:33:04.484Z,2.58
2022-12-25T17:38:06.460Z,3.55
2022-12-25T17:43:08.301Z,3.40
2022-12-25T17:48:10.059Z,3.25
2022-12-25T17:53:12.080Z,2.97
2022-12-25T17:58:13.855Z,3.47
2022-12-25T18:03:15.721Z,2.80
2022-12-25T18:08:17.612Z,2.80
2022-12-25T18:13:19.433Z,3.17
2022-12-25T18:18:21.226Z,3.03
2022-12-25T18:23:23.402Z,2.80
2022-12-25T18:28:25.124Z,3.45
2022-12-25T18:33:27.473Z,3.33
2022-12-25T18:38:29.404Z,3.80
2022-12-25T18:43:53.333Z,2.03
2022-12-25T18:48:56.598Z,1.83
2022-12-25T18:53:58.532Z,2.28
2022-12-25T18:59:00.757Z,2.95
2022-12-25T19:04:05.399Z,2.75
2022-12-25T19:09:11.170Z,1.80
2022-12-25T19:14:13.019Z,2.03
2022-12-25T19:19:15.321Z,2.05
2022-12-25T19:24:17.102Z,2.08
2022-12-25T19:29:19.253Z,1.67
2022-12-25T19:34:21.265Z,1.65
2022-12-25T19:39:23.153Z,1.88
2022-12-25T19:44:25.065Z,2.03
2022-12-25T19:49:27.159Z,1.58
2022-12-25T19:54:29.596Z,1.60
2022-12-25T19:59:31.390Z,2.20
2022-12-25T20:04:33.207Z,3.03
2022-12-25T20:09:35.061Z,2.63
2022-12-25T20:14:36.935Z,1.67
2022-12-25T20:19:38.971Z,2.40
2022-12-25T20:24:40.797Z,2.28
2022-12-25T20:29:42.793Z,3.00
2022-12-25T20:34:44.764Z,1.77
2022-12-25T20:39:46.691Z,2.05
2022-12-25T20:44:48.549Z,2.47
2022-12-25T20:49:51.631Z,2.47
2022-12-25T20:54:53.421Z,2.10
2022-12-25T20:59:55.151Z,2.50
2022-12-25T21:04:56.980Z,2.30
2022-12-25T21:09:59.421Z,2.22
2022-12-25T21:15:01.516Z,1.80
2022-12-25T21:20:03.632Z,2.15
2022-12-25T21:25:05.806Z,1.85
2022-12-25T21:30:14.942Z,1.70
2022-12-25T21:35:18.070Z,1.60
2022-12-25T21:40:20.110Z,1.98
2022-12-25T21:45:21.871Z,3.20
2022-12-25T21:50:42.407Z,2.25
2022-12-25T21:55:55.934Z,1.80
2022-12-25T22:01:03.464Z,1.65
2022-12-25T22:06:24.421Z,1.65
2022-12-25T22:11:45.249Z,1.10
2022-12-25T22:17:05.558Z,1.90
2022-12-25T22:22:07.294Z,1.30
2022-12-25T22:27:09.183Z,1.30
2022-12-25T22:32:12.512Z,1.00
2022-12-25T22:37:17.275Z,0.90
2022-12-25T22:42:19.706Z,0.80
2022-12-25T22:47:22.603Z,0.93
2022-12-25T22:52:24.987Z,0.63
2022-12-25T22:57:26.772Z,0.68
2022-12-25T23:02:28.907Z,1.02
2022-12-25T23:07:30.937Z,0.77
2022-12-25T23:12:51.491Z,0.85
2022-12-25T23:18:11.753Z,1.00
2022-12-25T23:23:34.821Z,1.02
2022-12-25T23:28:57.598Z,0.80
2022-12-25T23:33:59.997Z,0.70
2022-12-25T23:39:09.171Z,1.08
2022-12-25T23:44:13.475Z,1.00
2022-12-25T23:49:15.365Z,0.80
2022-12-25T23:54:22.348Z,1.02
2022-12-25T23:59:26.388Z,0.80
